createdAt,value
2019-04-19T00:00:20.186Z,44.55
2019-04-19T00:01:02.603Z,44.84
2019-04-19T00:01:47.363Z,44.65
2019-04-19T00:02:21.136Z,45.12
2019-04-19T00:03:00.327Z,45.03
2019-04-19T00:03:42.305Z,45.31
2019-04-19T00:04:23.293Z,45.41
2019-04-19T00:05:03.416Z,45.31
2019-04-19T00:05:44.515Z,45.51
2019-04-19T00:06:26.521Z,45.51
2019-04-19T00:07:11.035Z,45.51
2019-04-19T00:07:49.073Z,45.31
2019-04-19T00:08:38.965Z,45.6
2019-04-19T00:09:20.082Z,45.41
2019-04-19T00:09:54.278Z,45.41
2019-04-19T00:10:36.005Z,45.51
2019-04-19T00:11:18.449Z,45.1
2019-04-19T00:12:01.705Z,45.12
2019-04-19T00:12:37.194Z,45.39
2019-04-19T00:13:09.692Z,45.39
2019-04-19T00:13:49.571Z,45.39
2019-04-19T00:14:29.871Z,44.72
2019-04-19T00:15:11.709Z,45.01
2019-04-19T00:15:51.855Z,44.91
2019-04-19T00:16:32.006Z,45.29
2019-04-19T00:17:17.650Z,45.67
2019-04-19T00:17:59.556Z,45.58
2019-04-19T00:18:36.886Z,45.39
2019-04-19T00:19:29.670Z,45.39
2019-04-19T00:20:21.779Z,45.77
2019-04-19T00:20:55.449Z,45.87
2019-04-19T00:21:32.751Z,45.96
2019-04-19T00:22:26.341Z,45.48
2019-04-19T00:22:52.213Z,45.48
2019-04-19T00:23:26.792Z,45.77
2019-04-19T00:23:58.234Z,45.29
2019-04-19T00:24:39.500Z,44.81
2019-04-19T00:25:19.649Z,44.72
2019-04-19T00:25:59.852Z,44.62
2019-04-19T00:26:40.164Z,44.72
2019-04-19T00:27:24.675Z,45.29
2019-04-19T00:28:03.918Z,45.39
2019-04-19T00:28:49.271Z,44.81
2019-04-19T00:29:34.497Z,45.39
2019-04-19T00:30:17.785Z,45.58
2019-04-19T00:30:53.684Z,45.77
2019-04-19T00:31:33.747Z,45.39
2019-04-19T00:32:20.250Z,45.58
2019-04-19T00:33:00.091Z,45.67
2019-04-19T00:33:32.747Z,45.67
2019-04-19T00:34:06.624Z,45.67
2019-04-19T00:34:48.370Z,45.67
2019-04-19T00:35:28.528Z,45.67
2019-04-19T00:36:10.328Z,45.01
2019-04-19T00:36:48.935Z,45.77
2019-04-19T00:37:29.493Z,45.01
2019-04-19T00:38:13.430Z,45.01
2019-04-19T00:39:01.667Z,44.91
2019-04-19T00:39:44.773Z,44.81
2019-04-19T00:40:26.197Z,45.01
2019-04-19T00:41:06.591Z,45.39
2019-04-19T00:41:44.462Z,45.29
2019-04-19T00:42:29.542Z,45.29
2019-04-19T00:43:02.737Z,45.2
2019-04-19T00:43:49.267Z,44.81
2019-04-19T00:44:38.394Z,44.43
2019-04-19T00:45:12.995Z,44.43
2019-04-19T00:45:57.960Z,44.34
2019-04-19T00:46:28.996Z,44.62
2019-04-19T00:47:11.816Z,44.24
2019-04-19T00:47:50.934Z,43.76
2019-04-19T00:48:34.601Z,44.15
2019-04-19T00:49:10.034Z,44.81
2019-04-19T00:49:51.106Z,44.91
2019-04-19T00:50:28.929Z,44.62
2019-04-19T00:51:10.872Z,44.72
2019-04-19T00:51:57.124Z,44.91
2019-04-19T00:52:36.515Z,44.72
2019-04-19T00:53:14.248Z,44.43
2019-04-19T00:53:55.524Z,44.05
2019-04-19T00:54:31.912Z,43.76
2019-04-19T00:55:12.381Z,43.76
2019-04-19T00:55:54.245Z,43.86
2019-04-19T00:56:37.044Z,43.29
2019-04-19T00:57:16.917Z,43
2019-04-19T00:57:51.860Z,43.09
2019-04-19T00:58:31.435Z,43.19
2019-04-19T00:59:10.020Z,42.33
2019-04-19T00:59:50.528Z,42.33
2019-04-19T01:00:33.751Z,42.24
2019-04-19T01:01:13.388Z,41.66
2019-04-19T01:01:56.447Z,41.66
2019-04-19T01:02:34.214Z,41.09
2019-04-19T01:03:14.327Z,40.52
2019-04-19T01:03:52.630Z,40.8
2019-04-19T01:04:34.669Z,40.99
2019-04-19T01:05:16.256Z,40.32
2019-04-19T01:06:00.440Z,40.61
2019-04-19T01:06:41.693Z,40.13
2019-04-19T01:07:21.028Z,40.52
2019-04-19T01:07:55.725Z,40.52
2019-04-19T01:08:48.647Z,40.42
2019-04-19T01:09:28.490Z,40.42
2019-04-19T01:10:14.604Z,40.42
2019-04-19T01:10:49.319Z,40.23
2019-04-19T01:11:31.342Z,40.03
2019-04-19T01:12:10.157Z,40.03
2019-04-19T01:12:52.336Z,40.13
2019-04-19T01:13:36.627Z,40.23
2019-04-19T01:14:13.679Z,40.13
2019-04-19T01:14:49.573Z,40.13
2019-04-19T01:15:28.762Z,40.13
2019-04-19T01:16:15.669Z,40.32
2019-04-19T01:16:54.313Z,40.13
2019-04-19T01:17:36.385Z,40.13
2019-04-19T01:18:14.639Z,40.52
2019-04-19T01:18:53.831Z,40.13
2019-04-19T01:19:25.774Z,40.42
2019-04-19T01:20:07.387Z,40.32
2019-04-19T01:20:46.059Z,39.65
2019-04-19T01:21:26.653Z,40.52
2019-04-19T01:22:13.008Z,40.13
2019-04-19T01:22:54.321Z,40.42
2019-04-19T01:23:29.045Z,40.42
2019-04-19T01:24:09.678Z,40.61
2019-04-19T01:24:50.917Z,40.42
2019-04-19T01:25:30.860Z,40.32
2019-04-19T01:26:13.589Z,40.61
2019-04-19T01:26:54.272Z,40.52
2019-04-19T01:27:34.650Z,40.42
2019-04-19T01:28:17.674Z,40.52
2019-04-19T01:28:58.724Z,41.06
2019-04-19T01:29:37.963Z,40.61
2019-04-19T01:30:16.830Z,40.42
2019-04-19T01:30:54.921Z,40.42
2019-04-19T01:31:35.558Z,40.42
2019-04-19T01:32:18.498Z,40.52
2019-04-19T01:32:59.681Z,40.4
2019-04-19T01:33:40.813Z,40.49
2019-04-19T01:34:21.194Z,40.4
2019-04-19T01:35:03.560Z,40.3
2019-04-19T01:35:45.092Z,40.88
2019-04-19T01:36:26.428Z,40.97
2019-04-19T01:37:03.284Z,40.97
2019-04-19T01:37:41.100Z,40.59
2019-04-19T01:38:21.124Z,40.88
2019-04-19T01:39:17.419Z,40.4
2019-04-19T01:40:00.384Z,40.59
2019-04-19T01:40:40.682Z,40.78
2019-04-19T01:41:20.411Z,40.78
2019-04-19T01:41:54.639Z,40.88
2019-04-19T01:42:39.616Z,40.97
2019-04-19T01:43:23.400Z,41.06
2019-04-19T01:43:59.438Z,40.88
2019-04-19T01:44:42.147Z,41.06
2019-04-19T01:45:19.867Z,41.06
2019-04-19T01:46:03.287Z,41.06
2019-04-19T01:46:43.374Z,41.06
2019-04-19T01:47:30.237Z,41.16
2019-04-19T01:48:02.587Z,40.97
2019-04-19T01:48:42.829Z,41.35
2019-04-19T01:49:19.989Z,41.64
2019-04-19T01:50:01.742Z,41.45
2019-04-19T01:50:50.047Z,41.45
2019-04-19T01:51:25.956Z,41.55
2019-04-19T01:52:10.591Z,41.35
2019-04-19T01:52:56.929Z,41.55
2019-04-19T01:53:27.862Z,41.35
2019-04-19T01:54:09.780Z,41.55
2019-04-19T01:54:48.730Z,41.45
2019-04-19T01:55:23.179Z,41.64
2019-04-19T01:56:01.876Z,41.55
2019-04-19T01:56:38.641Z,42.02
2019-04-19T01:57:17.624Z,42.02
2019-04-19T01:58:01.420Z,41.55
2019-04-19T01:58:44.390Z,42.11
2019-04-19T01:59:18.579Z,42.02
2019-04-19T02:00:00.841Z,41.74
2019-04-19T02:00:44.793Z,41.93
2019-04-19T02:01:25.255Z,42.11
2019-04-19T02:02:07.084Z,41.64
2019-04-19T02:02:45.742Z,42.02
2019-04-19T02:03:23.027Z,42.02
2019-04-19T02:04:05.141Z,42.02
2019-04-19T02:04:43.614Z,42.02
2019-04-19T02:05:23.985Z,42.4
2019-04-19T02:06:07.922Z,42.11
2019-04-19T02:06:47.642Z,42.11
2019-04-19T02:07:29.227Z,42.21
2019-04-19T02:08:09.460Z,42.4
2019-04-19T02:08:51.837Z,42.11
2019-04-19T02:09:36.391Z,42.11
2019-04-19T02:10:18.243Z,42.21
2019-04-19T02:10:58.469Z,42.31
2019-04-19T02:11:39.328Z,42.4
2019-04-19T02:12:25.969Z,42.6
2019-04-19T02:13:02.482Z,42.6
2019-04-19T02:13:36.576Z,42.6
2019-04-19T02:14:16.947Z,42.4
2019-04-19T02:14:58.982Z,42.79
2019-04-19T02:15:38.835Z,42.96
2019-04-19T02:16:18.363Z,42.86
2019-04-19T02:16:59.063Z,42.96
2019-04-19T02:17:40.587Z,42.86
2019-04-19T02:18:19.509Z,43.05
2019-04-19T02:19:00.452Z,43.05
2019-04-19T02:19:37.248Z,42.86
2019-04-19T02:20:17.331Z,43.05
2019-04-19T02:20:58.079Z,43.05
2019-04-19T02:21:39.305Z,43.24
2019-04-19T02:22:24.615Z,43.05
2019-04-19T02:23:02.952Z,43.24
2019-04-19T02:23:44.344Z,43.24
2019-04-19T02:24:21.504Z,42.96
2019-04-19T02:25:00.809Z,43.33
2019-04-19T02:25:41.479Z,43.15
2019-04-19T02:26:22.923Z,43.05
2019-04-19T02:27:06.238Z,42.96
2019-04-19T02:27:46.643Z,43.53
2019-04-19T02:28:27.731Z,43.53
2019-04-19T02:29:09.076Z,43.62
2019-04-19T02:29:52.616Z,43.53
2019-04-19T02:30:33.634Z,43.33
2019-04-19T02:31:26.748Z,43.53
2019-04-19T02:32:12.757Z,43.15
2019-04-19T02:32:40.666Z,43.33
2019-04-19T02:33:28.875Z,43.62
2019-04-19T02:34:21.055Z,43.82
2019-04-19T02:34:54.094Z,43.62
2019-04-19T02:35:28.973Z,43.82
2019-04-19T02:36:15.298Z,44.01
2019-04-19T02:37:31.326Z,43.62
2019-04-19T02:38:20.859Z,43.72
2019-04-19T02:39:04.917Z,44.01
2019-04-19T02:41:10.328Z,43.43
2019-04-19T02:41:37.975Z,43.62
2019-04-19T02:42:58.229Z,43.82
2019-04-19T02:43:51.017Z,44.1
2019-04-19T02:44:15.162Z,43.72
2019-04-19T02:45:49.040Z,43.33
2019-04-19T02:47:43.708Z,43.82
2019-04-19T02:48:26.027Z,43.62
2019-04-19T02:49:09.201Z,43.82
2019-04-19T02:51:23.707Z,43.72
2019-04-19T02:53:08.567Z,43.82
2019-04-19T02:53:53.689Z,44.01
2019-04-19T02:54:33.386Z,43.82
2019-04-19T02:55:09.081Z,44.01
2019-04-19T02:55:52.507Z,44.01
2019-04-19T02:56:44.255Z,43.53
2019-04-19T02:57:20.871Z,44.01
2019-04-19T02:57:54.516Z,44.01
2019-04-19T02:58:32.122Z,44.2
2019-04-19T02:59:20.537Z,44.29
2019-04-19T03:01:37.672Z,44.38
2019-04-19T03:02:52.391Z,44.1
2019-04-19T03:04:13.751Z,44.27
2019-04-19T03:04:52.745Z,44.56
2019-04-19T03:05:50.069Z,44.37
2019-04-19T03:06:25.042Z,44.38
2019-04-19T03:06:59.413Z,44.46
2019-04-19T03:07:36.484Z,44.56
2019-04-19T03:08:16.832Z,44.56
2019-04-19T03:08:58.523Z,44.84
2019-04-19T03:09:40.973Z,44.74
2019-04-19T03:10:22.586Z,45.03
2019-04-19T03:11:08.917Z,44.94
2019-04-19T03:11:55.899Z,44.94
2019-04-19T03:12:53.745Z,44.84
2019-04-19T03:13:16.963Z,44.74
2019-04-19T03:13:56.949Z,44.65
2019-04-19T03:14:38.720Z,44.65
2019-04-19T03:15:13.663Z,44.84
2019-04-19T03:15:56.983Z,45.03
2019-04-19T03:16:43.323Z,44.94
2019-04-19T03:17:23.056Z,45.32
2019-04-19T03:18:00.371Z,45.22
2019-04-19T03:18:42.099Z,45.42
2019-04-19T03:19:17.941Z,45.32
2019-04-19T03:19:59.652Z,45.42
2019-04-19T03:20:38.280Z,45.32
2019-04-19T03:21:24.937Z,45.32
2019-04-19T03:22:00.263Z,45.51
2019-04-19T03:22:42.014Z,45.13
2019-04-19T03:23:21.676Z,45.03
2019-04-19T03:24:04.664Z,45.32
2019-04-19T03:24:46.445Z,45.13
2019-04-19T03:25:22.669Z,45.7
2019-04-19T03:26:02.267Z,45.7
2019-04-19T03:26:45.599Z,45.51
2019-04-19T03:27:20.799Z,45.22
2019-04-19T03:28:03.129Z,45.32
2019-04-19T03:28:40.383Z,45.51
2019-04-19T03:29:19.714Z,45.7
2019-04-19T03:30:05.240Z,45.79
2019-04-19T03:31:00.837Z,46.18
2019-04-19T03:31:58.576Z,45.99
2019-04-19T03:32:34.578Z,46.08
2019-04-19T03:34:18.306Z,46.18
2019-04-19T03:35:00.593Z,46.18
2019-04-19T03:35:43.162Z,46.18
2019-04-19T03:36:30.905Z,46.27
2019-04-19T03:36:54.573Z,46.27
2019-04-19T03:37:37.853Z,46.08
2019-04-19T03:38:15.488Z,46.08
2019-04-19T03:39:03.722Z,46.27
2019-04-19T03:39:43.823Z,46.18
2019-04-19T03:40:22.951Z,45.99
2019-04-19T03:41:02.435Z,46.56
2019-04-19T03:42:00.859Z,46.27
2019-04-19T03:42:27.052Z,46.18
2019-04-19T03:43:00.299Z,46.27
2019-04-19T03:43:56.437Z,46.37
2019-04-19T03:44:24.947Z,46.37
2019-04-19T03:45:06.706Z,46.47
2019-04-19T03:45:49.850Z,46.56
2019-04-19T03:46:18.407Z,46.66
2019-04-19T03:47:08.937Z,46.18
2019-04-19T03:47:49.932Z,46.47
2019-04-19T03:48:26.893Z,46.56
2019-04-19T03:49:19.141Z,46.54
2019-04-19T03:49:52.069Z,46.73
2019-04-19T03:50:26.046Z,46.25
2019-04-19T03:51:08.463Z,46.15
2019-04-19T03:51:56.601Z,46.25
2019-04-19T03:52:31.191Z,46.27
2019-04-19T03:53:11.816Z,46.37
2019-04-19T03:53:54.027Z,46.25
2019-04-19T03:54:28.132Z,46.56
2019-04-19T03:55:13.019Z,46.54
2019-04-19T03:56:01.477Z,46.75
2019-04-19T03:56:31.843Z,46.63
2019-04-19T03:57:09.976Z,46.66
2019-04-19T03:57:45.461Z,46.75
2019-04-19T03:58:21.958Z,46.63
2019-04-19T03:59:00.625Z,46.54
2019-04-19T03:59:41.335Z,46.63
2019-04-19T04:00:21.519Z,46.44
2019-04-19T04:01:02.377Z,46.54
2019-04-19T04:01:46.329Z,46.73
2019-04-19T04:02:29.715Z,46.82
2019-04-19T04:03:08.709Z,46.63
2019-04-19T04:03:47.657Z,46.73
2019-04-19T04:04:28.598Z,46.44
2019-04-19T04:05:09.594Z,46.73
2019-04-19T04:05:48.330Z,46.73
2019-04-19T04:06:30.742Z,46.63
2019-04-19T04:07:12.256Z,46.63
2019-04-19T04:07:53.698Z,46.73
2019-04-19T04:08:29.348Z,46.63
2019-04-19T04:09:09.818Z,46.63
2019-04-19T04:09:52.467Z,46.63
2019-04-19T04:10:34.364Z,47.3
2019-04-19T04:11:14.994Z,46.82
2019-04-19T04:11:59.098Z,46.92
2019-04-19T04:12:41.193Z,46.73
2019-04-19T04:13:25.060Z,46.92
2019-04-19T04:14:07.183Z,46.73
2019-04-19T04:14:49.421Z,46.92
2019-04-19T04:15:22.318Z,46.82
2019-04-19T04:16:07.528Z,46.82
2019-04-19T04:16:39.570Z,46.73
2019-04-19T04:17:16.341Z,47.2
2019-04-19T04:17:56.377Z,47.2
2019-04-19T04:18:36.495Z,46.82
2019-04-19T04:19:16.770Z,47.02
2019-04-19T04:19:58.616Z,47.39
2019-04-19T04:20:42.744Z,47.49
2019-04-19T04:21:20.194Z,47.3
2019-04-19T04:21:59.033Z,47.39
2019-04-19T04:22:42.464Z,47.2
2019-04-19T04:23:27.054Z,47.3
2019-04-19T04:24:12.743Z,47.3
2019-04-19T04:24:53.314Z,47.39
2019-04-19T04:25:28.092Z,47.11
2019-04-19T04:26:08.196Z,47.2
2019-04-19T04:26:54.574Z,47.2
2019-04-19T04:27:35.831Z,47.3
2019-04-19T04:28:17.310Z,47.3
2019-04-19T04:28:56.269Z,47.11
2019-04-19T04:29:34.158Z,47.2
2019-04-19T04:30:17.267Z,47.2
2019-04-19T04:30:55.884Z,47.11
2019-04-19T04:31:40.973Z,47.2
2019-04-19T04:32:17.721Z,47.39
2019-04-19T04:33:00.248Z,47.2
2019-04-19T04:33:42.183Z,47.2
2019-04-19T04:34:22.955Z,47.3
2019-04-19T04:35:08.344Z,47.39
2019-04-19T04:35:48.169Z,47.11
2019-04-19T04:36:29.724Z,47.2
2019-04-19T04:37:06.042Z,47.3
2019-04-19T04:37:44.291Z,47.11
2019-04-19T04:38:20.574Z,47.02
2019-04-19T04:38:54.586Z,46.92
2019-04-19T04:39:34.547Z,47.2
2019-04-19T04:40:14.956Z,47.2
2019-04-19T04:40:59.379Z,47.2
2019-04-19T04:41:37.298Z,47.11
2019-04-19T04:42:22.071Z,47.2
2019-04-19T04:43:08.511Z,47.3
2019-04-19T04:43:46.687Z,47.3
2019-04-19T04:44:32.870Z,47.39
2019-04-19T04:45:21.798Z,47.39
2019-04-19T04:46:08.605Z,47.11
2019-04-19T04:46:44.652Z,47.39
2019-04-19T04:47:19.121Z,47.11
2019-04-19T04:47:55.824Z,47.49
2019-04-19T04:48:48.179Z,47.2
2019-04-19T04:49:28.221Z,47.3
2019-04-19T04:50:05.095Z,47.3
2019-04-19T04:50:44.012Z,47.39
2019-04-19T04:51:19.407Z,47.2
2019-04-19T04:51:57.632Z,47.3
2019-04-19T04:52:30.494Z,47.3
2019-04-19T04:53:06.764Z,47.2
2019-04-19T04:53:47.070Z,47.49
2019-04-19T04:54:27.175Z,47.2
2019-04-19T04:55:07.575Z,47.2
2019-04-19T04:55:52.262Z,47.39
2019-04-19T04:56:33.316Z,47.39
2019-04-19T04:57:14.038Z,47.2
2019-04-19T04:57:55.644Z,47.3
2019-04-19T04:58:35.704Z,47.39
2019-04-19T04:59:16.077Z,47.3
2019-04-19T04:59:54.141Z,47.3
2019-04-19T05:00:38.352Z,47.11
2019-04-19T05:01:25.062Z,46.92
2019-04-19T05:02:00.313Z,47.3
2019-04-19T05:02:51.084Z,47.2
2019-04-19T05:03:35.209Z,47.3
2019-04-19T05:04:11.364Z,47.11
2019-04-19T05:04:47.952Z,46.92
2019-04-19T05:05:34.365Z,46.82
2019-04-19T05:06:16.042Z,46.92
2019-04-19T05:06:57.630Z,47.3
2019-04-19T05:07:32.536Z,47.3
2019-04-19T05:08:19.300Z,47.11
2019-04-19T05:08:53.668Z,47.39
2019-04-19T05:09:38.713Z,47.2
2019-04-19T05:10:18.477Z,47.39
2019-04-19T05:10:56.505Z,47.39
2019-04-19T05:11:37.541Z,47.49
2019-04-19T05:12:26.822Z,47.49
2019-04-19T05:13:43.165Z,47.2
2019-04-19T05:14:20.575Z,47.3
2019-04-19T05:14:55.759Z,47.49
2019-04-19T05:15:41.473Z,47.39
2019-04-19T05:16:32.211Z,47.11
2019-04-19T05:17:18.038Z,47.3
2019-04-19T05:17:51.144Z,47.2
2019-04-19T05:18:24.705Z,47.3
2019-04-19T05:19:03.382Z,47.11
2019-04-19T05:19:49.861Z,47.3
2019-04-19T05:20:27.127Z,46.92
2019-04-19T05:21:09.887Z,47.3
2019-04-19T05:21:43.988Z,47.39
2019-04-19T05:22:21.986Z,47.39
2019-04-19T05:23:08.058Z,47.2
2019-04-19T05:23:52.586Z,47.3
2019-04-19T05:24:31.387Z,47.11
2019-04-19T05:25:18.961Z,47.49
2019-04-19T05:25:55.345Z,47.3
2019-04-19T05:26:38.482Z,47.39
2019-04-19T05:27:14.611Z,47.49
2019-04-19T05:27:55.014Z,47.11
2019-04-19T05:28:33.143Z,47.3
2019-04-19T05:29:10.363Z,47.3
2019-04-19T05:29:43.275Z,47.39
2019-04-19T05:30:17.520Z,47.3
2019-04-19T05:31:03.237Z,47.3
2019-04-19T05:31:45.730Z,47.2
2019-04-19T05:32:23.918Z,47.13
2019-04-19T05:33:09.404Z,47.32
2019-04-19T05:33:51.275Z,47.49
2019-04-19T05:34:41.229Z,47.42
2019-04-19T05:35:15.310Z,47.49
2019-04-19T05:36:02.679Z,47.52
2019-04-19T05:36:38.274Z,46.94
2019-04-19T05:37:17.172Z,47.52
2019-04-19T05:37:58.241Z,47.23
2019-04-19T05:38:47.439Z,47.03
2019-04-19T05:39:24.849Z,46.84
2019-04-19T05:40:04.647Z,46.66
2019-04-19T05:40:38.707Z,46.84
2019-04-19T05:41:16.614Z,47.13
2019-04-19T05:41:59.562Z,47.52
2019-04-19T05:42:44.504Z,47.61
2019-04-19T05:43:47.209Z,47.61
2019-04-19T05:44:18.138Z,47.52
2019-04-19T05:44:54.768Z,46.94
2019-04-19T05:46:15.146Z,46.84
2019-04-19T05:47:04.402Z,47.23
2019-04-19T05:47:25.760Z,46.84
2019-04-19T05:48:00.212Z,46.84
2019-04-19T05:48:42.033Z,46.84
2019-04-19T05:49:26.148Z,47.52
2019-04-19T05:50:16.704Z,47.13
2019-04-19T05:50:51.286Z,47.23
2019-04-19T05:51:38.463Z,47.52
2019-04-19T05:52:17.177Z,47.52
2019-04-19T05:52:51.218Z,46.66
2019-04-19T05:53:27.644Z,46.84
2019-04-19T05:54:03.772Z,46.66
2019-04-19T05:54:38.647Z,46.66
2019-04-19T05:55:20.440Z,46.56
2019-04-19T05:56:00.651Z,46.66
2019-04-19T05:56:44.774Z,46.47
2019-04-19T05:57:39.703Z,46.66
2019-04-19T05:58:11.264Z,46.75
2019-04-19T05:58:54.629Z,46.56
2019-04-19T05:59:34.759Z,46.75
2019-04-19T06:00:17.865Z,46.84
2019-04-19T06:00:57.945Z,46.75
2019-04-19T06:01:40.998Z,46.84
2019-04-19T06:02:15.429Z,46.84
2019-04-19T06:02:56.649Z,47.13
2019-04-19T06:03:43.811Z,46.84
2019-04-19T06:04:20.817Z,46.94
2019-04-19T06:05:09.943Z,47.25
2019-04-19T06:05:56.388Z,46.68
2019-04-19T06:06:31.025Z,46.75
2019-04-19T06:07:08.140Z,46.39
2019-04-19T06:07:42.457Z,46.68
2019-04-19T06:08:18.129Z,45.92
2019-04-19T06:08:51.888Z,46.01
2019-04-19T06:09:32.509Z,46.3
2019-04-19T06:10:13.886Z,46.2
2019-04-19T06:10:56.571Z,46.11
2019-04-19T06:11:37.418Z,45.92
2019-04-19T06:12:19.633Z,46.3
2019-04-19T06:12:58.800Z,46.68
2019-04-19T06:13:42.144Z,46.11
2019-04-19T06:14:38.227Z,46.11
2019-04-19T06:15:17.280Z,46.11
2019-04-19T06:15:59.378Z,45.92
2019-04-19T06:16:34.890Z,45.72
2019-04-19T06:17:16.318Z,46.39
2019-04-19T06:18:00.216Z,46.01
2019-04-19T06:18:34.974Z,45.92
2019-04-19T06:19:23.505Z,45.72
2019-04-19T06:20:03.725Z,45.82
2019-04-19T06:20:37.912Z,45.75
2019-04-19T06:21:22.908Z,45.65
2019-04-19T06:22:00.483Z,45.17
2019-04-19T06:22:45.951Z,45.27
2019-04-19T06:23:26.565Z,44.98
2019-04-19T06:24:11.484Z,44.89
2019-04-19T06:24:48.135Z,44.89
2019-04-19T06:25:32.667Z,44.62
2019-04-19T06:26:39.606Z,43.57
2019-04-19T06:27:00.423Z,43.57
2019-04-19T06:27:43.240Z,43
2019-04-19T06:28:28.382Z,42.35
2019-04-19T06:29:01.010Z,42.16
2019-04-19T06:29:43.489Z,41.87
2019-04-19T06:30:19.932Z,41.3
2019-04-19T06:30:54.523Z,41.22
2019-04-19T06:31:39.281Z,40.55
2019-04-19T06:32:20.570Z,40.86
2019-04-19T06:33:02.128Z,40.58
2019-04-19T06:33:37.302Z,40.09
2019-04-19T06:34:19.564Z,39.52
2019-04-19T06:34:53.527Z,39.54
2019-04-19T06:35:32.498Z,39.06
2019-04-19T06:36:06.322Z,38.59
2019-04-19T06:36:56.207Z,38.39
2019-04-19T06:37:26.565Z,38.32
2019-04-19T06:38:05.464Z,38.22
2019-04-19T06:38:46.447Z,38.51
2019-04-19T06:39:26.635Z,38.79
2019-04-19T06:40:14.195Z,37.85
2019-04-19T06:40:53.383Z,37.38
2019-04-19T06:41:36.334Z,36.8
2019-04-19T06:42:11.708Z,36.61
2019-04-19T06:42:56.737Z,36.22
2019-04-19T06:43:42.971Z,36.42
2019-04-19T06:44:20.710Z,37.2
2019-04-19T06:45:12.020Z,36.44
2019-04-19T06:45:49.007Z,35.86
2019-04-19T06:46:24.388Z,35.38
2019-04-19T06:47:05.978Z,35.86
2019-04-19T06:47:43.210Z,35.59
2019-04-19T06:48:20.294Z,35.19
2019-04-19T06:49:02.951Z,35.21
2019-04-19T06:49:37.636Z,34.44
2019-04-19T06:50:22.894Z,34.73
2019-04-19T06:51:02.266Z,34.82
2019-04-19T06:51:47.335Z,34.73
2019-04-19T06:52:24.722Z,34.63
2019-04-19T06:53:01.690Z,34.34
2019-04-19T06:53:49.879Z,34.65
2019-04-19T06:54:28.463Z,34.65
2019-04-19T06:55:08.114Z,34.27
2019-04-19T06:55:48.408Z,33.88
2019-04-19T06:56:31.725Z,34.84
2019-04-19T06:57:14.806Z,36.28
2019-04-19T06:57:55.546Z,37.24
2019-04-19T06:58:39.050Z,37.26
2019-04-19T06:59:17.774Z,37.35
2019-04-19T07:00:02.580Z,36.3
2019-04-19T07:00:44.712Z,34.86
2019-04-19T07:01:21.307Z,34.78
2019-04-19T07:01:55.611Z,34.68
2019-04-19T07:02:32.807Z,34.49
2019-04-19T07:03:14.720Z,34.41
2019-04-19T07:03:53.853Z,34.12
2019-04-19T07:04:43.899Z,33.54
2019-04-19T07:05:29.891Z,33.93
2019-04-19T07:06:13.881Z,33.54
2019-04-19T07:06:51.130Z,33.84
2019-04-19T07:07:33.039Z,33.66
2019-04-19T07:08:29.532Z,32.89
2019-04-19T07:09:44.286Z,32.51
2019-04-19T07:10:31.806Z,32.51
2019-04-19T07:11:05.958Z,32.14
2019-04-19T07:11:45.888Z,30.98
2019-04-19T07:12:23.488Z,30.11
2019-04-19T07:13:00.502Z,30.39
2019-04-19T07:13:35.582Z,30.21
2019-04-19T07:14:11.858Z,30.68
2019-04-19T07:15:06.361Z,29.91
2019-04-19T07:15:49.582Z,30.21
2019-04-19T07:16:29.871Z,30.98
2019-04-19T07:17:05.412Z,30.77
2019-04-19T07:17:41.779Z,30.6
2019-04-19T07:18:24.491Z,31.27
2019-04-19T07:19:08.559Z,30.4
2019-04-19T07:19:49.699Z,30.6
2019-04-19T07:20:26.250Z,30.79
2019-04-19T07:21:05.994Z,30.4
2019-04-19T07:21:51.669Z,31.27
2019-04-19T07:22:34.583Z,31.37
2019-04-19T07:23:13.337Z,31.19
2019-04-19T07:24:01.396Z,30.8
2019-04-19T07:24:44.101Z,29.94
2019-04-19T07:25:30.281Z,30.04
2019-04-19T07:26:04.036Z,29.74
2019-04-19T07:26:46.658Z,30.32
2019-04-19T07:27:22.266Z,29.17
2019-04-19T07:27:58.114Z,29.46
2019-04-19T07:28:33.309Z,29.46
2019-04-19T07:29:12.574Z,29.55
2019-04-19T07:29:54.655Z,29.07
2019-04-19T07:30:34.925Z,29.07
2019-04-19T07:31:16.933Z,28.89
2019-04-19T07:31:57.885Z,29.47
2019-04-19T07:32:45.827Z,29.46
2019-04-19T07:33:31.115Z,29.57
2019-04-19T07:34:13.372Z,29.28
2019-04-19T07:34:56.522Z,28.61
2019-04-19T07:35:46.766Z,29.47
2019-04-19T07:36:39.893Z,29.28
2019-04-19T07:37:01.684Z,29.08
2019-04-19T07:37:45.993Z,29.38
2019-04-19T07:38:45.495Z,29.97
2019-04-19T07:39:08.317Z,29
2019-04-19T07:39:58.392Z,28.91
2019-04-19T07:40:36.561Z,27.94
2019-04-19T07:41:16.021Z,28.52
2019-04-19T07:41:56.162Z,28.62
2019-04-19T07:42:38.643Z,28.72
2019-04-19T07:43:16.635Z,28.91
2019-04-19T07:43:54.293Z,28.91
2019-04-19T07:44:34.659Z,29.49
2019-04-19T07:45:08.644Z,29.89
2019-04-19T07:46:07.444Z,28.73
2019-04-19T07:46:44.089Z,28.25
2019-04-19T07:47:17.340Z,28.83
2019-04-19T07:47:58.353Z,28.63
2019-04-19T07:48:32.427Z,28.53
2019-04-19T07:49:14.377Z,28.53
2019-04-19T07:50:04.757Z,28.53
2019-04-19T07:50:45.274Z,28.53
2019-04-19T07:51:23.939Z,28.63
2019-04-19T07:52:06.645Z,28.63
2019-04-19T07:52:46.906Z,28.73
2019-04-19T07:53:30.173Z,28.94
2019-04-19T07:54:09.538Z,28.26
2019-04-19T07:54:46.667Z,28.05
2019-04-19T07:55:26.743Z,28.05
2019-04-19T07:56:21.043Z,28.15
2019-04-19T07:57:09.712Z,27.86
2019-04-19T07:58:01.599Z,28.05
2019-04-19T07:58:43.191Z,28.25
2019-04-19T07:59:17.797Z,28.25
2019-04-19T07:59:59.151Z,27.57
2019-04-19T08:00:51.339Z,28.33
2019-04-19T08:02:49.413Z,29.2
2019-04-19T08:04:57.105Z,29.29
2019-04-19T08:05:32.186Z,28.91
2019-04-19T08:06:15.747Z,28.72
2019-04-19T08:07:48.603Z,29
2019-04-19T08:09:01.620Z,29.58
2019-04-19T08:10:25.410Z,28.62
2019-04-19T08:11:57.443Z,28.42
2019-04-19T08:12:23.651Z,29.1
2019-04-19T08:13:57.703Z,29.77
2019-04-19T08:15:18.135Z,28.14
2019-04-19T08:17:17.530Z,28.42
2019-04-19T08:17:52.737Z,27.08
2019-04-19T08:28:08.417Z,28.52
2019-04-19T08:28:43.050Z,29.39
2019-04-19T08:29:27.367Z,28.62
2019-04-19T08:29:59.903Z,28.62
2019-04-19T08:30:44.922Z,28.33
2019-04-19T08:31:18.022Z,27.46
2019-04-19T08:32:00.299Z,27.27
2019-04-19T08:32:41.034Z,28.14
2019-04-19T08:33:23.345Z,29
2019-04-19T08:34:09.206Z,29.58
2019-04-19T08:34:46.989Z,29.98
2019-04-19T08:35:26.052Z,29.87
2019-04-19T08:36:09.720Z,29.69
2019-04-19T08:36:52.139Z,30.18
2019-04-19T08:37:36.323Z,30.37
2019-04-19T08:38:16.304Z,30.18
2019-04-19T08:39:06.470Z,30.37
2019-04-19T08:39:48.883Z,30.56
2019-04-19T08:40:32.029Z,28.44
2019-04-19T08:41:08.777Z,28.63
2019-04-19T08:41:53.152Z,28.53
2019-04-19T08:42:34.090Z,28.05
2019-04-19T08:43:14.913Z,28.05
2019-04-19T08:43:54.517Z,28.34
2019-04-19T08:44:37.395Z,28.44
2019-04-19T08:45:08.190Z,28.63
2019-04-19T08:45:46.603Z,28.63
2019-04-19T08:46:26.320Z,28.53
2019-04-19T08:47:17.369Z,28.63
2019-04-19T08:47:59.113Z,28.83
2019-04-19T08:48:39.060Z,29.31
2019-04-19T08:49:21.193Z,29.98
2019-04-19T08:49:59.407Z,30.19
2019-04-19T08:50:43.366Z,28.92
2019-04-19T08:51:25.472Z,28.94
2019-04-19T08:52:07.118Z,29.61
2019-04-19T08:52:51.115Z,30.38
2019-04-19T08:53:38.750Z,30.67
2019-04-19T08:54:30.986Z,30.67
2019-04-19T08:55:08.606Z,28.16
2019-04-19T08:55:48.725Z,28.16
2019-04-19T08:56:22.924Z,28.74
2019-04-19T08:56:59.536Z,28.74
2019-04-19T08:57:34.351Z,27.39
2019-04-19T08:58:32.121Z,27.49
2019-04-19T08:59:21.076Z,26.72
2019-04-19T08:59:52.561Z,26.43
2019-04-19T09:00:44.750Z,26.7
2019-04-19T09:01:18.524Z,26.51
2019-04-19T09:02:00.193Z,27.19
2019-04-19T09:02:33.971Z,28.25
2019-04-19T09:03:13.816Z,28.92
2019-04-19T09:04:02.294Z,28.25
2019-04-19T09:04:43.733Z,28.92
2019-04-19T09:05:21.929Z,28.64
2019-04-19T09:06:24.935Z,26.61
2019-04-19T09:07:22.632Z,26.51
2019-04-19T09:07:42.897Z,26.61
2019-04-19T09:08:04.649Z,25.35
2019-04-19T09:08:45.768Z,25.35
2019-04-19T09:09:30.450Z,25.55
2019-04-19T09:10:21.684Z,26.12
2019-04-19T09:10:51.859Z,26.32
2019-04-19T09:11:29.792Z,25.45
2019-04-19T09:12:11.960Z,26.03
2019-04-19T09:13:06.665Z,24.97
2019-04-19T09:13:37.550Z,25.07
2019-04-19T09:14:17.114Z,25.64
2019-04-19T09:14:56.135Z,25.93
2019-04-19T09:15:35.087Z,25.55
2019-04-19T09:16:20.157Z,25.26
2019-04-19T09:17:07.103Z,24.01
2019-04-19T09:18:00.791Z,24.49
2019-04-19T09:18:45.122Z,25.35
2019-04-19T09:19:07.000Z,26.32
2019-04-19T09:20:00.438Z,25.93